^^
Saratoga-Weather Station Historical Data
Daily Summary for June 29, 2022 Units:  English    Metric   Both
Daily Weekly Monthly Yearly Custom
  High: Low: Average:
Temperature: 65.5 °F 63 °F 64.6 °F
Dew Point: 57.4 °F 53.8 °F 55.8 °F
Humidity: 77% 69% 73%
Wind Speed: 0.9mph 0mph 0mph
Wind Gust: 2mph - -
Wind- - WSW
Pressure: 30 in 29.9 in -
Precipitation: 0 in    
Historical Graphs
 
 
Tabular Data for June 29, 2022
Time Temperature Dew Point Pressure Wind Wind Speed Wind Gust Humidity Rainfall Rate (Hourly) solar
00:03 65.5 °F 55.8 °F 30 in Calm     71% 0 in 0 W/m2
00:08 65.5 °F 55.8 °F 30 in Calm     71% 0 in 0 W/m2
00:13 65.5 °F 55.8 °F 30 in Calm   1 mph 71% 0 in 0 W/m2
00:18 65.5 °F 56.3 °F 30 in Calm     72% 0 in 0 W/m2
00:23 65.1 °F 55.9 °F 30 in Calm   1 mph 72% 0 in 0 W/m2
00:28 64.9 °F 55.8 °F 30 in Calm     72% 0 in 0 W/m2
00:33 64.8 °F 55.6 °F 30 in Calm     72% 0 in 0 W/m2
00:38 64.6 °F 55.4 °F 30 in Calm     72% 0 in 0 W/m2
00:43 64.4 °F 55.6 °F 30 in Calm   1 mph 73% 0 in 0 W/m2
00:48 64.2 °F 55.4 °F 30 in Calm     73% 0 in 0 W/m2
00:53 64.2 °F 55.4 °F 30 in Calm   1 mph 73% 0 in 0 W/m2
00:58 64.2 °F 55.4 °F 30 in Calm     73% 0 in 0 W/m2
01:03 64.2 °F 55.8 °F 30 in WSW 0.9 mph 2 mph 74% 0 in 0 W/m2
01:08 64.4 °F 55.9 °F 30 in Calm   1 mph 74% 0 in 0 W/m2
01:13 64.4 °F 55.9 °F 30 in Calm   2 mph 74% 0 in 0 W/m2
01:18 64.6 °F 56.5 °F 30 in Calm     75% 0 in 0 W/m2
01:23 64.4 °F 56.3 °F 30 in Calm     75% 0 in 0 W/m2
01:29 64.4 °F 56.3 °F 30 in Calm     75% 0 in 0 W/m2
01:34 64.4 °F 56.3 °F 30 in Calm     75% 0 in 0 W/m2
01:39 64.4 °F 56.3 °F 30 in Calm     75% 0 in 0 W/m2
01:44 64.4 °F 56.3 °F 30 in Calm     75% 0 in 0 W/m2
01:49 64.4 °F 56.7 °F 30 in Calm     76% 0 in 0 W/m2
01:54 64.4 °F 56.3 °F 30 in Calm     75% 0 in 0 W/m2
01:59 64.6 °F 56.5 °F 30 in Calm     75% 0 in 0 W/m2
02:04 64.6 °F 56.5 °F 30 in Calm     75% 0 in 0 W/m2
02:09 64.8 °F 57 °F 30 in Calm     76% 0 in 0 W/m2
02:14 64.8 °F 57 °F 30 in Calm     76% 0 in 0 W/m2
02:19 64.8 °F 56.7 °F 30 in Calm     75% 0 in 0 W/m2
02:24 64.8 °F 57 °F 30 in Calm     76% 0 in 0 W/m2
02:29 64.8 °F 57 °F 30 in Calm     76% 0 in 0 W/m2
02:34 64.8 °F 57 °F 30 in Calm     76% 0 in 0 W/m2
02:39 64.8 °F 57.4 °F 30 in Calm     77% 0 in 0 W/m2
02:44 64.8 °F 57 °F 30 in Calm     76% 0 in 0 W/m2
02:49 64.6 °F 56.8 °F 30 in Calm     76% 0 in 0 W/m2
02:54 64.6 °F 56.8 °F 30 in Calm     76% 0 in 0 W/m2
02:59 64.6 °F 56.8 °F 30 in Calm     76% 0 in 0 W/m2
03:04 64.6 °F 56.8 °F 30 in Calm     76% 0 in 0 W/m2
03:09 64.6 °F 56.5 °F 30 in Calm     75% 0 in 0 W/m2
03:14 64.6 °F 56.5 °F 30 in Calm     75% 0 in 0 W/m2
03:19 64.6 °F 56.1 °F 29.9 in Calm     74% 0 in 0 W/m2
03:24 64.6 °F 55.8 °F 29.9 in Calm     73% 0 in 0 W/m2
03:29 64.6 °F 55.8 °F 29.9 in Calm     73% 0 in 0 W/m2
03:34 64.8 °F 55.6 °F 29.9 in Calm     72% 0 in 0 W/m2
03:39 64.8 °F 55.6 °F 29.9 in Calm     72% 0 in 0 W/m2
03:44 64.9 °F 55.4 °F 29.9 in Calm     71% 0 in 0 W/m2
03:49 64.9 °F 54.9 °F 29.9 in Calm     70% 0 in 0 W/m2
03:54 64.9 °F 55.8 °F 29.9 in Calm     72% 0 in 0 W/m2
03:59 65.1 °F 55.4 °F 29.9 in Calm     71% 0 in 0 W/m2
04:04 65.1 °F 55 °F 29.9 in Calm     70% 0 in 0 W/m2
04:09 65.1 °F 55 °F 29.9 in Calm     70% 0 in 0 W/m2
04:14 65.3 °F 55.2 °F 29.9 in Calm     70% 0 in 0 W/m2
04:19 65.3 °F 54.9 °F 29.9 in Calm     69% 0 in 0 W/m2
04:24 65.3 °F 54.9 °F 29.9 in Calm     69% 0 in 0 W/m2
04:29 65.3 °F 56.1 °F 29.9 in Calm     72% 0 in 0 W/m2
04:34 65.5 °F 56.7 °F 29.9 in Calm     73% 0 in 0 W/m2
04:39 65.1 °F 55.9 °F 29.9 in Calm     72% 0 in 0 W/m2
04:44 65.1 °F 56.3 °F 29.9 in Calm     73% 0 in 0 W/m2
04:49 65.1 °F 56.3 °F 29.9 in Calm     73% 0 in 0 W/m2
04:54 64.9 °F 56.1 °F 29.9 in Calm     73% 0 in 0 W/m2
04:59 64.9 °F 56.1 °F 29.9 in Calm     73% 0 in 0 W/m2
05:04 64.9 °F 56.1 °F 29.9 in Calm     73% 0 in 0 W/m2
05:09 64.9 °F 56.1 °F 29.9 in Calm     73% 0 in 0 W/m2
05:14 64.9 °F 56.1 °F 29.9 in Calm     73% 0 in 0 W/m2
05:19 64.8 °F 55.9 °F 29.9 in Calm     73% 0 in 0 W/m2
05:24 64.8 °F 56.3 °F 29.9 in Calm     74% 0 in 0 W/m2
05:29 64.6 °F 56.1 °F 29.9 in Calm     74% 0 in 0 W/m2
05:34 64.4 °F 55.9 °F 29.9 in Calm     74% 0 in 0 W/m2
05:39 64.2 °F 55.4 °F 29.9 in Calm     73% 0 in 0 W/m2
05:44 64 °F 54.5 °F 29.9 in Calm     71% 0 in 5 W/m2
05:49 63.7 °F 54.1 °F 29.9 in Calm     71% 0 in 7 W/m2
05:54 63.7 °F 54.9 °F 29.9 in Calm     73% 0 in 7 W/m2
05:59 63.5 °F 55 °F 29.9 in Calm     74% 0 in 9 W/m2
06:04 63.3 °F 54.5 °F 29.9 in Calm     73% 0 in 12 W/m2
06:09 63.1 °F 54 °F 29.9 in Calm     72% 0 in 16 W/m2
06:14 63 °F 53.8 °F 29.9 in Calm     72% 0 in 21 W/m2
06:19 63 °F 53.8 °F 29.9 in Calm     72% 0 in 25 W/m2
06:24 63 °F 53.8 °F 29.9 in Calm     72% 0 in 28 W/m2
06:29 63 °F 54.1 °F 29.9 in Calm     73% 0 in 26 W/m2
06:34 63 °F 54.1 °F 29.9 in Calm     73% 0 in 26 W/m2
06:39 63 °F 54.5 °F 29.9 in Calm     74% 0 in 32 W/m2
Juneau County Weather
Compliments of Weather Underground - 2 mb